Time;durP1;ratioP1;P1;durP2;ratioP2;P2;SDS_P1;SDS_P2;PMS_P1;PMS_P2;Temp;Humidity;BMP_temperature;BMP_pressure;BME280_temperature;BME280_humidity;BME280_pressure;Samples;Min_cycle;Max_cycle;Signal;HPM_P1;HPM_P2
2021/01/28 00:01:19;;;;;;;12.15;2.50;;;18.60;39.40;;;;;;5111759;28;20059;-59
2021/01/28 00:03:45;;;;;;;14.50;2.60;;;18.60;39.00;;;;;;5109448;28;20034;-56
2021/01/28 00:06:12;;;;;;;9.85;2.08;;;18.50;38.80;;;;;;5109671;28;20028;-60
2021/01/28 00:08:39;;;;;;;14.25;2.20;;;18.40;38.40;;;;;;5109233;28;20383;-60
2021/01/28 00:11:06;;;;;;;7.85;2.13;;;18.40;38.70;;;;;;5108719;28;20030;-60
2021/01/28 00:13:32;;;;;;;7.18;1.95;;;18.60;39.30;;;;;;5088154;28;20024;-57
2021/01/28 00:15:59;;;;;;;6.10;2.25;;;19.40;37.90;;;;;;5107227;28;20016;-61
2021/01/28 00:18:26;;;;;;;7.18;2.53;;;20.80;35.50;;;;;;5106349;28;20545;-60
2021/01/28 00:20:52;;;;;;;9.32;2.60;;;22.00;32.30;;;;;;5091339;28;20024;-59
2021/01/28 00:23:19;;;;;;;14.43;2.67;;;22.70;30.20;;;;;;5107626;28;20027;-59
2021/01/28 00:25:47;;;;;;;7.40;2.92;;;22.00;30.80;;;;;;5103590;28;20088;-59
2021/01/28 00:28:16;;;;;;;7.10;2.35;;;21.00;32.80;;;;;;5102097;28;20039;-60
2021/01/28 00:30:46;;;;;;;10.88;2.22;;;20.20;34.70;;;;;;5107354;28;20028;-58
2021/01/28 00:33:15;;;;;;;8.27;2.40;;;19.60;35.60;;;;;;5106938;28;20107;-57
2021/01/28 00:35:45;;;;;;;10.70;2.63;;;19.30;36.60;;;;;;5109914;28;20048;-63
2021/01/28 00:38:17;;;;;;;9.13;2.10;;;18.90;36.90;;;;;;5086723;28;20059;-57
2021/01/28 00:40:44;;;;;;;9.30;2.50;;;18.50;37.80;;;;;;5104246;28;20046;-55
2021/01/28 00:43:11;;;;;;;8.18;2.60;;;18.20;38.60;;;;;;5098252;28;20477;-58
2021/01/28 00:45:38;;;;;;;7.95;2.67;;;18.10;39.10;;;;;;5102697;28;20126;-59
2021/01/28 00:48:05;;;;;;;11.20;2.40;;;17.90;40.00;;;;;;5099591;28;20031;-57
2021/01/28 00:50:34;;;;;;;6.65;2.30;;;17.80;39.10;;;;;;5100541;28;20036;-59
2021/01/28 00:53:01;;;;;;;7.72;2.38;;;17.60;39.70;;;;;;5104114;28;20102;-58
2021/01/28 00:55:28;;;;;;;9.00;2.35;;;17.40;40.40;;;;;;5101022;28;20023;-57
2021/01/28 00:57:55;;;;;;;8.07;1.73;;;17.20;40.20;;;;;;5098336;28;20062;-58
2021/01/28 01:00:34;;;;;;;12.15;2.90;;;17.00;40.10;;;;;;5103781;28;20069;-57
2021/01/28 01:03:01;;;;;;;15.23;1.77;;;16.70;40.90;;;;;;5097108;28;20111;-54
2021/01/28 01:05:30;;;;;;;16.23;2.17;;;16.50;41.40;;;;;;5101693;28;20016;-58
2021/01/28 01:07:56;;;;;;;15.95;2.10;;;16.40;41.80;;;;;;5095549;28;20027;-57
2021/01/28 01:10:44;;;;;;;10.35;1.92;;;16.30;41.80;;;;;;5101464;28;20054;-56
2021/01/28 01:13:21;;;;;;;7.53;1.85;;;16.10;42.00;;;;;;5096050;28;20020;-59
2021/01/28 01:15:48;;;;;;;5.25;2.03;;;16.00;42.40;;;;;;5099490;28;20148;-60
2021/01/28 01:18:18;;;;;;;15.63;2.60;;;15.80;42.40;;;;;;5099320;28;20759;-57
2021/01/28 01:20:46;;;;;;;9.52;2.42;;;15.70;43.00;;;;;;5091336;28;20472;-57
2021/01/28 01:23:13;;;;;;;11.25;2.80;;;15.70;43.30;;;;;;5102894;28;20020;-59
2021/01/28 01:25:40;;;;;;;14.02;2.55;;;15.50;43.40;;;;;;5096832;28;20035;-56
2021/01/28 01:28:06;;;;;;;;;;;15.40;43.60;;;;;;5107832;28;20027;-55
2021/01/28 01:30:34;;;;;;;7.47;2.13;;;15.30;43.80;;;;;;5108049;28;19908;-55
2021/01/28 01:33:00;;;;;;;11.48;2.58;;;15.20;44.10;;;;;;5100751;28;20043;-58
2021/01/28 01:35:27;;;;;;;19.90;2.55;;;15.20;44.40;;;;;;5098907;28;20044;-61
2021/01/28 01:37:56;;;;;;;10.25;3.40;;;15.10;44.70;;;;;;5070186;28;20058;-55
2021/01/28 01:40:44;;;;;;;23.13;3.35;;;15.00;44.90;;;;;;5131931;27;20445;-57
2021/01/28 01:43:14;;;;;;;15.18;3.42;;;15.00;45.40;;;;;;5124590;28;20023;-59
2021/01/28 01:46:05;;;;;;;18.20;3.28;;;14.80;45.70;;;;;;5120582;27;20031;-55
2021/01/28 01:48:38;;;;;;;18.85;3.15;;;14.80;46.40;;;;;;5123292;28;20028;-57
2021/01/28 01:51:17;;;;;;;15.27;3.33;;;14.70;46.40;;;;;;5117175;28;20036;-59
2021/01/28 01:54:04;;;;;;;17.23;3.17;;;14.70;46.70;;;;;;5118103;28;20019;-59
2021/01/28 01:56:35;;;;;;;20.52;2.85;;;14.60;46.70;;;;;;5123837;28;20487;-55
2021/01/28 01:59:14;;;;;;;16.63;3.25;;;14.50;47.10;;;;;;5117954;28;20095;-56
2021/01/28 02:01:51;;;;;;;18.33;4.35;;;14.50;47.70;;;;;;5121645;28;20018;-57
2021/01/28 02:04:19;;;;;;;24.05;5.07;;;14.40;48.10;;;;;;5128193;28;20032;-56
2021/01/28 02:07:00;;;;;;;24.98;5.20;;;14.30;48.70;;;;;;5120647;28;20020;-58
2021/01/28 02:09:27;;;;;;;25.63;6.95;;;14.30;49.10;;;;;;5125186;28;20032;-55
2021/01/28 02:11:53;;;;;;;31.58;7.38;;;14.20;49.00;;;;;;5125212;27;20673;-56
2021/01/28 02:14:20;;;;;;;18.90;5.68;;;14.20;49.50;;;;;;5124859;27;20084;-55
2021/01/28 02:16:54;;;;;;;27.40;5.43;;;14.10;49.80;;;;;;5126238;28;20479;-59
2021/01/28 02:19:52;;;;;;;28.20;5.55;;;14.10;50.20;;;;;;5136756;27;20039;-56
2021/01/28 02:22:23;;;;;;;33.33;6.28;;;14.00;50.40;;;;;;5124364;28;20606;-58
2021/01/28 02:25:27;;;;;;;23.90;5.28;;;13.90;51.40;;;;;;5125884;28;20111;-57
2021/01/28 02:28:00;;;;;;;22.40;5.47;;;13.90;51.80;;;;;;5141929;27;20015;-59
2021/01/28 02:30:29;;;;;;;35.53;6.38;;;13.90;52.10;;;;;;5119649;27;20559;-59
2021/01/28 02:32:56;;;;;;;29.77;6.10;;;13.80;52.50;;;;;;5143871;27;20027;-55
2021/01/28 02:35:32;;;;;;;28.95;5.32;;;13.80;52.70;;;;;;5134939;27;20088;-59
2021/01/28 02:38:02;;;;;;;25.70;5.45;;;13.70;53.30;;;;;;5141804;27;20026;-59
2021/01/28 02:40:30;;;;;;;28.65;5.78;;;13.70;53.30;;;;;;5144735;27;20487;-59
2021/01/28 02:42:57;;;;;;;27.67;6.70;;;13.60;53.60;;;;;;5144050;27;20031;-58
2021/01/28 02:45:35;;;;;;;33.22;7.30;;;13.40;53.70;;;;;;5144154;27;20078;-59
2021/01/28 02:48:06;;;;;;;36.88;8.23;;;13.60;54.10;;;;;;5147528;27;20063;-56
2021/01/28 02:50:32;;;;;;;22.77;7.15;;;13.60;54.40;;;;;;5137936;27;20015;-58
2021/01/28 02:53:00;;;;;;;;;;;13.60;55.00;;;;;;5127935;27;20075;-59
2021/01/28 02:55:29;;;;;;;25.55;7.32;;;13.50;55.00;;;;;;5127322;27;19903;-57
2021/01/28 02:57:56;;;;;;;25.58;7.00;;;13.50;54.70;;;;;;5115269;27;20502;-60
2021/01/28 03:00:30;;;;;;;30.92;9.52;;;13.40;54.20;;;;;;5121949;27;20369;-58
2021/01/28 03:02:57;;;;;;;36.60;10.05;;;13.30;54.10;;;;;;5120817;27;20055;-57
2021/01/28 03:05:24;;;;;;;26.60;8.50;;;13.10;54.20;;;;;;5127416;27;20026;-57
2021/01/28 03:07:51;;;;;;;;;;;13.10;54.70;;;;;;5122230;27;20024;-55
2021/01/28 03:10:21;;;;;;;37.10;9.52;;;13.00;55.00;;;;;;5119005;27;19904;-56
2021/01/28 03:12:48;;;;;;;34.75;9.45;;;13.00;55.60;;;;;;5123354;27;20028;-55
2021/01/28 03:15:17;;;;;;;41.80;10.32;;;13.00;55.90;;;;;;5130101;27;20069;-57
2021/01/28 03:17:44;;;;;;;35.03;10.45;;;13.00;56.50;;;;;;5128131;27;20103;-57
2021/01/28 03:20:13;;;;;;;34.70;10.15;;;13.00;56.90;;;;;;5107842;27;20373;-58
2021/01/28 03:22:40;;;;;;;35.90;10.07;;;12.90;56.80;;;;;;5124990;27;20046;-56
2021/01/28 03:25:09;;;;;;;34.63;9.85;;;12.80;56.80;;;;;;5127771;27;20015;-58
2021/01/28 03:27:36;;;;;;;35.95;10.23;;;12.90;57.20;;;;;;5123451;27;20042;-59
2021/01/28 03:30:04;;;;;;;;;;;12.90;57.30;;;;;;5127981;27;20035;-57
2021/01/28 03:32:30;;;;;;;39.30;8.98;;;12.80;57.30;;;;;;5123469;27;19903;-58
2021/01/28 03:34:57;;;;;;;35.53;9.30;;;12.70;57.80;;;;;;5124566;27;20024;-58
2021/01/28 03:37:23;;;;;;;;;;;12.70;57.50;;;;;;5133573;27;20023;-60
2021/01/28 03:39:50;;;;;;;31.42;10.40;;;12.70;57.50;;;;;;5132935;27;19998;-59
2021/01/28 03:42:16;;;;;;;;;;;12.60;58.40;;;;;;5126546;27;20035;-60
2021/01/28 03:44:42;;;;;;;39.03;11.18;;;12.70;57.80;;;;;;5129550;27;19908;-58
2021/01/28 03:47:09;;;;;;;46.58;14.25;;;12.60;58.30;;;;;;5126480;27;20023;-60
2021/01/28 03:49:35;;;;;;;47.17;17.13;;;12.60;58.90;;;;;;5116539;27;20030;-58
2021/01/28 03:52:02;;;;;;;53.65;17.35;;;12.50;59.10;;;;;;5132972;27;20514;-56
2021/01/28 03:54:28;;;;;;;59.92;20.60;;;12.50;59.50;;;;;;5105684;28;20034;-59
2021/01/28 03:56:55;;;;;;;;;;;12.50;59.60;;;;;;5121159;27;20036;-59
2021/01/28 03:59:21;;;;;;;75.80;20.90;;;12.50;60.20;;;;;;5110386;27;19915;-57
2021/01/28 04:01:48;;;;;;;75.22;23.85;;;12.50;60.90;;;;;;5121125;27;20024;-59
2021/01/28 04:04:14;;;;;;;77.63;20.67;;;12.50;61.00;;;;;;5126185;27;20430;-58
2021/01/28 04:06:40;;;;;;;;;;;12.40;61.20;;;;;;5126918;27;20391;-59
2021/01/28 04:09:07;;;;;;;67.38;18.90;;;12.40;61.10;;;;;;5124397;27;20331;-57
2021/01/28 04:11:33;;;;;;;;;;;12.40;62.00;;;;;;5102578;28;20038;-57
2021/01/28 04:14:00;;;;;;;70.13;19.63;;;12.30;61.20;;;;;;5125299;27;20373;-55
2021/01/28 04:16:26;;;;;;;;;;;12.30;61.70;;;;;;5118893;27;20031;-57
2021/01/28 04:18:53;;;;;;;55.90;18.55;;;12.20;61.70;;;;;;5126891;27;20283;-56
2021/01/28 04:21:19;;;;;;;51.08;18.48;;;12.30;62.30;;;;;;5126243;27;20541;-57
2021/01/28 04:23:45;;;;;;;;;;;12.20;62.30;;;;;;5115410;27;20098;-57
2021/01/28 04:26:12;;;;;;;65.72;17.35;;;12.20;62.50;;;;;;5121388;27;19990;-58
2021/01/28 04:28:38;;;;;;;;;;;12.20;62.40;;;;;;5126161;27;20027;-55
2021/01/28 04:31:06;;;;;;;56.03;16.80;;;12.10;62.20;;;;;;5126016;27;20116;-56
2021/01/28 04:33:33;;;;;;;52.40;16.75;;;12.10;62.50;;;;;;5127111;27;20096;-58
2021/01/28 04:36:01;;;;;;;60.38;16.20;;;12.00;62.40;;;;;;5117114;27;20045;-59
2021/01/28 04:38:28;;;;;;;46.85;13.95;;;12.00;61.00;;;;;;5114127;27;20027;-59
2021/01/28 04:41:14;;;;;;;38.35;10.18;;;12.10;60.50;;;;;;5129652;27;20031;-57
2021/01/28 04:43:41;;;;;;;26.58;7.80;;;12.10;59.70;;;;;;5130067;27;20364;-59
2021/01/28 04:46:15;;;;;;;24.55;7.07;;;12.10;60.80;;;;;;5112186;27;20027;-57
2021/01/28 04:48:41;;;;;;;26.98;7.63;;;12.10;61.50;;;;;;5107421;27;20019;-58
2021/01/28 04:51:09;;;;;;;22.65;6.20;;;12.10;62.30;;;;;;5112405;27;20044;-58
2021/01/28 04:53:57;;;;;;;18.13;5.93;;;12.00;63.00;;;;;;5115716;27;20031;-55
2021/01/28 04:56:26;;;;;;;15.68;5.68;;;12.00;64.30;;;;;;5120136;27;20510;-59
2021/01/28 04:59:09;;;;;;;14.23;4.07;;;12.00;66.20;;;;;;5126220;27;20043;-54
2021/01/28 05:01:37;;;;;;;19.88;5.07;;;12.00;67.10;;;;;;5128825;27;20044;-58
2021/01/28 05:04:07;;;;;;;14.85;4.97;;;11.80;68.10;;;;;;5128938;27;20077;-59
2021/01/28 05:06:34;;;;;;;21.08;5.68;;;11.90;68.90;;;;;;5107726;27;20023;-59
2021/01/28 05:09:01;;;;;;;14.85;6.70;;;11.80;69.60;;;;;;5121142;27;20031;-58
2021/01/28 05:11:28;;;;;;;;;;;11.80;70.20;;;;;;5129170;27;20112;-59
2021/01/28 05:13:55;;;;;;;;;;;11.80;71.30;;;;;;5123927;27;19990;-57
2021/01/28 05:16:43;;;;;;;13.98;6.40;;;11.70;71.90;;;;;;5124102;27;19915;-58
2021/01/28 05:19:24;;;;;;;14.10;5.47;;;11.70;72.60;;;;;;5122989;27;20046;-57
2021/01/28 05:22:13;;;;;;;14.98;6.50;;;11.70;73.00;;;;;;5118045;27;20111;-59
2021/01/28 05:24:46;;;;;;;19.42;6.50;;;11.60;73.50;;;;;;5105937;27;20024;-58
2021/01/28 05:27:24;;;;;;;12.65;6.45;;;11.60;74.40;;;;;;5121644;27;20028;-58
2021/01/28 05:29:53;;;;;;;13.82;6.28;;;11.60;75.40;;;;;;5121895;27;20031;-57
2021/01/28 05:32:49;;;;;;;14.73;6.10;;;11.60;76.50;;;;;;5122998;27;20024;-58
2021/01/28 05:35:30;;;;;;;16.95;6.13;;;11.50;77.50;;;;;;5102154;27;20031;-57
2021/01/28 05:38:08;;;;;;;15.32;5.75;;;11.50;78.80;;;;;;5127889;28;20042;-56
2021/01/28 05:40:37;;;;;;;14.88;5.63;;;11.50;79.80;;;;;;5121042;28;20403;-57
2021/01/28 05:43:35;;;;;;;16.50;6.63;;;11.50;80.30;;;;;;5126528;28;20021;-57
2021/01/28 05:46:27;;;;;;;15.00;5.85;;;11.50;81.70;;;;;;5123413;28;20467;-57
2021/01/28 05:49:04;;;;;;;20.38;6.40;;;11.40;82.30;;;;;;5121991;28;20110;-57
2021/01/28 05:51:44;;;;;;;14.30;6.72;;;11.40;83.30;;;;;;5124272;28;20445;-56
2021/01/28 05:54:22;;;;;;;13.52;5.40;;;11.40;84.30;;;;;;5119202;28;20039;-55
2021/01/28 05:57:04;;;;;;;15.15;6.18;;;11.30;84.50;;;;;;5124204;28;20387;-56
2021/01/28 05:59:43;;;;;;;18.35;6.28;;;11.40;84.90;;;;;;5116873;28;20487;-57
2021/01/28 06:02:38;;;;;;;12.00;6.38;;;11.40;85.60;;;;;;5123748;28;20168;-59
2021/01/28 06:05:23;;;;;;;11.48;5.53;;;11.30;86.20;;;;;;5125221;28;20476;-59
2021/01/28 06:08:08;;;;;;;14.73;6.07;;;11.30;86.60;;;;;;5118413;28;20027;-57
2021/01/28 06:10:55;;;;;;;14.50;5.85;;;11.30;86.50;;;;;;5124045;28;20049;-57
2021/01/28 06:13:43;;;;;;;16.85;5.80;;;11.30;86.20;;;;;;5111851;28;20031;-58
2021/01/28 06:16:13;;;;;;;15.20;6.15;;;11.30;86.00;;;;;;5126008;28;20031;-57
2021/01/28 06:19:01;;;;;;;14.05;5.97;;;11.30;85.60;;;;;;5124643;28;20090;-59
2021/01/28 06:22:01;;;;;;;13.13;6.03;;;11.40;85.40;;;;;;5115206;28;20483;-56
2021/01/28 06:24:51;;;;;;;18.30;6.43;;;11.30;84.60;;;;;;5124336;27;20422;-59
2021/01/28 06:27:36;;;;;;;13.93;6.10;;;11.30;85.00;;;;;;5130967;27;20058;-59
2021/01/28 06:30:24;;;;;;;15.57;6.35;;;11.30;84.90;;;;;;5126880;27;20023;-57
2021/01/28 06:33:18;;;;;;;15.45;6.85;;;11.30;84.70;;;;;;5132964;27;20030;-58
2021/01/28 06:36:15;;;;;;;15.98;6.38;;;11.20;84.20;;;;;;5130285;27;20023;-58
2021/01/28 06:39:06;;;;;;;14.98;6.85;;;11.20;84.10;;;;;;5110642;27;20040;-59
2021/01/28 06:41:41;;;;;;;15.93;6.60;;;11.10;84.30;;;;;;5129300;27;20493;-56
2021/01/28 06:44:23;;;;;;;14.27;6.88;;;11.10;84.30;;;;;;5125762;27;20023;-58
2021/01/28 06:47:05;;;;;;;14.07;6.05;;;11.00;84.30;;;;;;5130902;27;20028;-58
2021/01/28 06:50:04;;;;;;;15.52;6.00;;;11.00;84.00;;;;;;5117770;27;20048;-57
2021/01/28 06:52:36;;;;;;;14.48;5.97;;;11.00;84.20;;;;;;5117366;27;20071;-59
2021/01/28 06:55:30;;;;;;;11.52;5.93;;;11.00;84.70;;;;;;5131796;27;20114;-58
2021/01/28 06:58:19;;;;;;;16.48;5.88;;;10.90;84.70;;;;;;5112776;27;20024;-59
2021/01/28 07:00:57;;;;;;;15.32;6.10;;;10.90;85.10;;;;;;5122275;27;20498;-56
2021/01/28 07:03:39;;;;;;;18.08;5.53;;;10.90;85.50;;;;;;5122818;27;20479;-56
2021/01/28 07:06:22;;;;;;;22.63;6.38;;;11.00;85.20;;;;;;5115648;27;20061;-58
2021/01/28 07:09:14;;;;;;;20.40;5.88;;;10.90;84.90;;;;;;5124911;27;20019;-58
2021/01/28 07:11:45;;;;;;;19.38;6.55;;;10.90;85.00;;;;;;5132066;27;20038;-55
2021/01/28 07:14:16;;;;;;;14.18;6.20;;;10.80;85.10;;;;;;5122921;27;20064;-55
2021/01/28 07:17:11;;;;;;;17.55;5.93;;;10.80;85.00;;;;;;5130251;27;20462;-55
2021/01/28 07:19:42;;;;;;;15.63;5.80;;;10.70;84.80;;;;;;5127720;27;20032;-55
2021/01/28 07:22:31;;;;;;;12.88;5.95;;;10.80;84.80;;;;;;5133329;27;20040;-57
2021/01/28 07:25:24;;;;;;;15.38;5.95;;;10.80;83.70;;;;;;5130335;27;20023;-58
2021/01/28 07:27:55;;;;;;;15.90;6.10;;;10.80;83.70;;;;;;5132560;27;20430;-53
2021/01/28 07:30:47;;;;;;;17.10;5.88;;;10.90;83.20;;;;;;5133006;27;20055;-55
2021/01/28 07:33:23;;;;;;;17.20;6.82;;;10.80;83.40;;;;;;5131206;27;20023;-57
2021/01/28 07:35:57;;;;;;;13.75;6.75;;;10.80;83.50;;;;;;5125484;27;20084;-58
2021/01/28 07:38:30;;;;;;;11.45;6.18;;;10.80;84.10;;;;;;5127523;27;20075;-56
2021/01/28 07:41:02;;;;;;;13.70;5.90;;;10.80;84.40;;;;;;5128250;27;20064;-55
2021/01/28 07:43:36;;;;;;;14.68;6.72;;;10.80;84.80;;;;;;5130336;27;20110;-58
2021/01/28 07:46:27;;;;;;;20.63;7.20;;;10.80;84.40;;;;;;5128093;27;20027;-58
2021/01/28 07:49:12;;;;;;;19.50;7.22;;;10.80;84.00;;;;;;5131082;27;20011;-58
2021/01/28 07:51:44;;;;;;;18.63;7.32;;;10.70;84.20;;;;;;5126795;27;20522;-60
2021/01/28 07:54:23;;;;;;;16.13;7.57;;;10.70;84.30;;;;;;5133211;27;20019;-57
2021/01/28 07:56:59;;;;;;;24.05;8.55;;;10.70;85.70;;;;;;5118077;27;20028;-58
2021/01/28 07:59:55;;;;;;;24.85;8.60;;;10.60;85.90;;;;;;5121197;27;20046;-54
2021/01/28 08:02:30;;;;;;;25.60;10.77;;;10.70;86.60;;;;;;5130313;27;20053;-58
2021/01/28 08:04:59;;;;;;;33.47;12.95;;;10.70;86.60;;;;;;5129563;27;20031;-57
2021/01/28 08:07:30;;;;;;;38.47;15.35;;;10.60;86.90;;;;;;5127280;27;20075;-56
2021/01/28 08:10:01;;;;;;;45.40;16.70;;;10.50;86.90;;;;;;5115654;27;20031;-61
2021/01/28 08:12:53;;;;;;;54.50;20.38;;;10.50;88.80;;;;;;5130275;27;20019;-56
2021/01/28 08:15:33;;;;;;;43.83;21.10;;;10.60;89.40;;;;;;5130991;27;20046;-57
2021/01/28 08:18:19;;;;;;;50.50;20.98;;;10.60;89.30;;;;;;5131798;27;20011;-59
2021/01/28 08:20:46;;;;;;;56.13;23.50;;;10.60;89.50;;;;;;5126505;27;20034;-58
2021/01/28 08:23:25;;;;;;;62.03;24.55;;;10.60;89.90;;;;;;5129618;27;20019;-55
2021/01/28 08:25:53;;;;;;;61.50;26.90;;;10.70;90.20;;;;;;5127897;27;20372;-59
2021/01/28 08:28:20;;;;;;;63.17;28.15;;;10.60;90.30;;;;;;5130516;27;20084;-56
2021/01/28 08:30:46;;;;;;;66.15;28.80;;;11.00;90.50;;;;;;5131083;27;20037;-56
2021/01/28 08:33:19;;;;;;;;;;;10.50;91.10;;;;;;5105522;27;20031;-57
2021/01/28 08:35:53;;;;;;;73.47;30.55;;;10.60;91.80;;;;;;5142048;27;19935;-57
2021/01/28 08:38:28;;;;;;;60.97;29.25;;;10.60;91.80;;;;;;5129200;27;20023;-56
2021/01/28 08:41:03;;;;;;;70.47;29.73;;;10.60;91.80;;;;;;5132963;27;20034;-56
2021/01/28 08:43:30;;;;;;;65.93;29.45;;;10.60;92.20;;;;;;5132927;27;20030;-58
2021/01/28 08:46:11;;;;;;;75.80;30.83;;;10.60;92.10;;;;;;5127043;27;20102;-55
2021/01/28 08:48:39;;;;;;;62.85;28.90;;;10.60;92.20;;;;;;5130126;27;20099;-58
2021/01/28 08:51:09;;;;;;;67.15;29.15;;;10.60;92.30;;;;;;5128421;27;20391;-57
2021/01/28 08:53:36;;;;;;;63.13;29.65;;;10.60;92.60;;;;;;5129581;27;20033;-59
2021/01/28 08:56:08;;;;;;;63.60;29.38;;;10.50;92.40;;;;;;5132012;27;20476;-54
2021/01/28 08:58:40;;;;;;;68.70;30.13;;;10.50;92.80;;;;;;5131008;27;20027;-59
2021/01/28 09:01:10;;;;;;;60.33;29.13;;;10.40;93.30;;;;;;5127425;27;20028;-55
2021/01/28 09:03:56;;;;;;;65.75;29.45;;;10.50;94.00;;;;;;5130789;27;20077;-57
2021/01/28 09:06:23;;;;;;;68.55;30.70;;;10.50;94.10;;;;;;5131207;27;20023;-55
2021/01/28 09:08:59;;;;;;;;;;;10.40;94.10;;;;;;5128966;27;20043;-57
2021/01/28 09:11:29;;;;;;;58.45;29.05;;;10.40;94.50;;;;;;5122498;27;19910;-55
2021/01/28 09:14:23;;;;;;;72.93;28.42;;;10.30;94.90;;;;;;5129591;27;20399;-57
2021/01/28 09:17:17;;;;;;;63.17;26.27;;;10.40;95.70;;;;;;5123771;27;20030;-55
2021/01/28 09:19:55;;;;;;;70.28;28.02;;;10.30;96.00;;;;;;5128468;27;20034;-57
2021/01/28 09:22:38;;;;;;;61.50;26.08;;;10.40;95.80;;;;;;5127857;27;20031;-59
2021/01/28 09:25:21;;;;;;;59.97;26.48;;;10.40;95.60;;;;;;5131432;27;20073;-59
2021/01/28 09:28:09;;;;;;;55.88;25.83;;;10.30;95.90;;;;;;5113248;27;20494;-58
2021/01/28 09:30:40;;;;;;;61.15;25.45;;;10.30;96.30;;;;;;5126117;27;20475;-58
2021/01/28 09:33:36;;;;;;;48.75;24.98;;;10.30;96.40;;;;;;5129723;27;20027;-58
2021/01/28 09:36:20;;;;;;;51.72;25.25;;;10.20;96.20;;;;;;5121835;27;20027;-55
2021/01/28 09:39:19;;;;;;;50.92;23.33;;;10.10;96.50;;;;;;5128287;27;20054;-57
2021/01/28 09:41:51;;;;;;;55.00;23.60;;;10.10;96.90;;;;;;5129168;28;20352;-59
2021/01/28 09:44:44;;;;;;;53.33;24.77;;;10.10;97.40;;;;;;5131034;28;20020;-57
2021/01/28 09:47:13;;;;;;;53.42;23.25;;;10.00;97.50;;;;;;5121276;28;20499;-56
2021/01/28 09:49:40;;;;;;;48.95;22.45;;;10.00;97.60;;;;;;5129490;28;20057;-57
2021/01/28 09:52:16;;;;;;;43.38;20.60;;;10.10;97.40;;;;;;5128683;28;20058;-58
2021/01/28 09:54:42;;;;;;;39.45;18.63;;;10.00;97.10;;;;;;5128937;28;20023;-56
2021/01/28 09:57:09;;;;;;;34.92;16.73;;;10.10;97.00;;;;;;5123403;28;20120;-59
2021/01/28 09:59:35;;;;;;;;;;;10.00;96.80;;;;;;5124793;28;20040;-56
2021/01/28 10:02:01;;;;;;;29.05;12.35;;;9.90;96.10;;;;;;5130447;27;19930;-57
2021/01/28 10:04:28;;;;;;;35.17;14.00;;;10.00;96.60;;;;;;5134978;27;20104;-55
2021/01/28 10:06:54;;;;;;;;;;;10.00;95.90;;;;;;5132394;27;20395;-57
2021/01/28 10:09:21;;;;;;;25.70;12.10;;;10.00;96.00;;;;;;5132926;27;19915;-57
2021/01/28 10:11:47;;;;;;;;;;;10.10;96.20;;;;;;5134350;27;20020;-58
2021/01/28 10:14:13;;;;;;;26.73;11.80;;;10.00;95.70;;;;;;5135111;27;20002;-57
2021/01/28 10:16:40;;;;;;;28.13;11.65;;;10.00;95.30;;;;;;5132475;27;20020;-56
2021/01/28 10:19:06;;;;;;;;;;;10.00;95.60;;;;;;5128208;27;20035;-57
2021/01/28 10:21:32;;;;;;;25.80;11.10;;;10.00;95.70;;;;;;5134416;27;19911;-58
2021/01/28 10:23:58;;;;;;;;;;;10.00;95.20;;;;;;5117625;27;20034;-56
2021/01/28 10:26:26;;;;;;;24.25;10.43;;;10.00;95.30;;;;;;5132200;27;20686;-59
2021/01/28 10:28:53;;;;;;;36.40;10.95;;;9.90;95.00;;;;;;5135092;27;20035;-58
2021/01/28 10:31:19;;;;;;;;;;;10.00;95.50;;;;;;5135735;27;20023;-56
2021/01/28 10:33:45;;;;;;;33.40;9.27;;;10.00;95.20;;;;;;5130702;27;20283;-57
2021/01/28 10:36:12;;;;;;;;;;;9.90;95.30;;;;;;5131479;27;20031;-59
2021/01/28 10:38:39;;;;;;;19.67;9.02;;;10.00;95.50;;;;;;5132857;27;19915;-57
2021/01/28 10:41:06;;;;;;;;;;;10.00;95.40;;;;;;5134473;27;20026;-57
2021/01/28 10:43:33;;;;;;;26.13;9.95;;;9.90;95.20;;;;;;5133401;27;19926;-59
2021/01/28 10:46:00;;;;;;;23.13;9.40;;;10.00;95.60;;;;;;5134656;27;20023;-57
2021/01/28 10:48:26;;;;;;;;;;;10.00;95.50;;;;;;5132687;27;20113;-58
2021/01/28 10:50:53;;;;;;;17.63;8.23;;;10.00;95.20;;;;;;5133390;27;20481;-56
2021/01/28 10:53:19;;;;;;;;;;;9.90;95.20;;;;;;5129349;27;20023;-57
2021/01/28 10:55:45;;;;;;;21.98;8.23;;;9.80;95.30;;;;;;5134163;27;19903;-55
2021/01/28 10:58:12;;;;;;;;;;;9.90;95.40;;;;;;5135880;27;20023;-56
2021/01/28 11:00:38;;;;;;;21.55;7.85;;;9.80;95.50;;;;;;5133789;27;19950;-58
2021/01/28 11:03:05;;;;;;;;;;;9.80;95.40;;;;;;5132256;27;20485;-56
2021/01/28 11:05:34;;;;;;;18.95;7.05;;;9.70;95.50;;;;;;5131302;27;20370;-57
2021/01/28 11:08:01;;;;;;;21.73;6.70;;;9.70;95.90;;;;;;5130568;27;20103;-57
2021/01/28 11:10:29;;;;;;;16.15;6.18;;;9.70;95.90;;;;;;5132636;27;20467;-55
2021/01/28 11:12:58;;;;;;;19.88;6.40;;;9.60;95.80;;;;;;5133650;27;20383;-58
2021/01/28 11:15:27;;;;;;;15.75;5.97;;;9.70;96.10;;;;;;5133432;27;20076;-58
2021/01/28 11:17:54;;;;;;;13.65;5.65;;;9.80;95.90;;;;;;5134803;27;20384;-58
2021/01/28 11:20:21;;;;;;;13.20;4.88;;;9.80;95.70;;;;;;5126109;27;20032;-58
2021/01/28 11:22:47;;;;;;;17.38;4.93;;;9.90;95.20;;;;;;5127576;27;20414;-58
2021/01/28 11:25:21;;;;;;;15.63;6.00;;;9.80;95.00;;;;;;5132932;27;20030;-59
2021/01/28 11:27:50;;;;;;;11.50;5.07;;;9.70;95.10;;;;;;5130664;27;20020;-58
2021/01/28 11:30:21;;;;;;;11.55;5.15;;;9.70;95.40;;;;;;5130653;27;20028;-58
2021/01/28 11:32:48;;;;;;;20.15;5.88;;;9.80;95.30;;;;;;5132782;27;20029;-59
2021/01/28 11:35:16;;;;;;;15.85;5.45;;;9.90;94.80;;;;;;5130165;27;20027;-59
2021/01/28 11:37:45;;;;;;;11.55;4.82;;;9.80;94.50;;;;;;5132493;27;20019;-55
2021/01/28 11:40:14;;;;;;;11.32;5.43;;;9.70;94.30;;;;;;5131477;27;20075;-59
2021/01/28 11:42:41;;;;;;;13.45;5.40;;;9.70;94.30;;;;;;5131702;27;20079;-58
2021/01/28 11:45:08;;;;;;;;;;;9.70;94.60;;;;;;5131727;27;20125;-58
2021/01/28 11:47:34;;;;;;;10.10;4.30;;;9.70;94.60;;;;;;5116084;27;19907;-58
2021/01/28 11:50:00;;;;;;;;;;;9.70;94.40;;;;;;5132499;27;20094;-59
2021/01/28 11:52:27;;;;;;;18.10;5.70;;;9.70;94.40;;;;;;5133610;27;20420;-58
2021/01/28 11:54:53;;;;;;;;;;;9.70;94.70;;;;;;5132044;27;20027;-58
2021/01/28 11:57:20;;;;;;;20.52;6.60;;;9.70;94.70;;;;;;5132237;27;20394;-58
2021/01/28 11:59:46;;;;;;;;;;;9.80;94.70;;;;;;5127421;27;20043;-57
2021/01/28 12:02:12;;;;;;;18.73;6.38;;;9.80;94.80;;;;;;5128217;27;19903;-59
2021/01/28 12:04:38;;;;;;;;;;;9.70;94.70;;;;;;5130616;27;20403;-58
2021/01/28 12:07:05;;;;;;;18.13;7.25;;;9.80;95.30;;;;;;5129095;27;19922;-59
2021/01/28 12:09:31;;;;;;;;;;;9.70;95.20;;;;;;5132238;27;20027;-58
2021/01/28 12:11:57;;;;;;;20.38;7.75;;;9.80;95.20;;;;;;5131291;27;19953;-58
2021/01/28 12:14:23;;;;;;;;;;;9.70;95.20;;;;;;5128790;27;20015;-58
2021/01/28 12:16:50;;;;;;;18.45;7.53;;;9.80;95.20;;;;;;5132273;27;19910;-59
2021/01/28 12:19:16;;;;;;;;;;;9.80;95.70;;;;;;5130031;27;20122;-57
2021/01/28 12:21:43;;;;;;;19.90;8.15;;;9.80;95.40;;;;;;5129663;27;19908;-59
2021/01/28 12:24:10;;;;;;;19.60;8.82;;;9.70;95.00;;;;;;5125194;27;20563;-59
2021/01/28 12:26:37;;;;;;;28.17;9.30;;;9.70;94.90;;;;;;5129276;27;20532;-59
2021/01/28 12:29:04;;;;;;;25.73;8.43;;;9.60;95.30;;;;;;5131745;27;20066;-60
2021/01/28 12:31:30;;;;;;;;;;;9.70;95.70;;;;;;5132934;27;20500;-59
2021/01/28 12:33:56;;;;;;;25.67;8.43;;;9.70;95.40;;;;;;5129329;27;19911;-59
2021/01/28 12:36:22;;;;;;;;;;;9.70;95.50;;;;;;5130457;27;20060;-59
2021/01/28 12:38:49;;;;;;;23.40;9.27;;;9.70;95.10;;;;;;5127907;27;20367;-59
2021/01/28 12:41:15;;;;;;;;;;;9.70;95.30;;;;;;5130248;27;20060;-57
2021/01/28 12:43:41;;;;;;;23.60;9.20;;;9.60;95.30;;;;;;5129165;27;19950;-58
2021/01/28 12:46:08;;;;;;;24.23;9.63;;;9.70;95.60;;;;;;5130889;27;20043;-59
2021/01/28 12:48:35;;;;;;;19.10;8.90;;;9.70;95.70;;;;;;5133123;27;20181;-59
2021/01/28 12:51:01;;;;;;;;;;;9.60;95.70;;;;;;5129910;27;20019;-59
2021/01/28 12:53:27;;;;;;;20.48;8.20;;;9.60;95.90;;;;;;5125504;27;19918;-59
2021/01/28 12:55:53;;;;;;;;;;;9.70;95.40;;;;;;5130557;27;20015;-59
2021/01/28 12:58:20;;;;;;;13.40;7.15;;;9.70;95.30;;;;;;5131309;27;19907;-55
2021/01/28 13:00:46;;;;;;;;;;;9.60;95.40;;;;;;5128437;27;20034;-58
2021/01/28 13:03:13;;;;;;;19.10;6.93;;;9.70;95.20;;;;;;5130016;27;19998;-56
2021/01/28 13:05:39;;;;;;;14.98;6.45;;;9.70;95.00;;;;;;5130445;27;20019;-53
2021/01/28 13:08:06;;;;;;;;;;;9.60;95.40;;;;;;5132273;27;20031;-55
2021/01/28 13:10:32;;;;;;;19.17;6.20;;;9.60;95.30;;;;;;5128373;27;20002;-57
2021/01/28 13:12:58;;;;;;;;;;;9.70;95.30;;;;;;5130546;27;20092;-58
2021/01/28 13:15:25;;;;;;;23.20;6.20;;;9.70;95.00;;;;;;5130468;27;19907;-59
2021/01/28 13:17:52;;;;;;;;;;;9.60;95.10;;;;;;5128538;27;20023;-58